sensor_id;sensor_type;location;lat;lon;timestamp;P1;durP1;ratioP1;P2;durP2;ratioP2
74963;SDS011;63521;51.900;4.748;2023-01-06T00:00:43;2.95;;;1.10;;
74963;SDS011;63521;51.900;4.748;2023-01-06T00:03:08;1.63;;;1.20;;
74963;SDS011;63521;51.900;4.748;2023-01-06T00:05:34;2.28;;;1.10;;
74963;SDS011;63521;51.900;4.748;2023-01-06T00:07:59;2.53;;;1.10;;
74963;SDS011;63521;51.900;4.748;2023-01-06T00:10:25;1.83;;;1.20;;
74963;SDS011;63521;51.900;4.748;2023-01-06T00:12:51;3.15;;;1.08;;
74963;SDS011;63521;51.900;4.748;2023-01-06T00:15:16;2.78;;;1.10;;
74963;SDS011;63521;51.900;4.748;2023-01-06T00:17:42;2.05;;;1.10;;
74963;SDS011;63521;51.900;4.748;2023-01-06T00:20:08;2.28;;;1.10;;
74963;SDS011;63521;51.900;4.748;2023-01-06T00:22:35;1.70;;;1.10;;
74963;SDS011;63521;51.900;4.748;2023-01-06T00:25:00;3.28;;;1.55;;
74963;SDS011;63521;51.900;4.748;2023-01-06T00:27:25;1.20;;;1.10;;
74963;SDS011;63521;51.900;4.748;2023-01-06T00:29:51;2.13;;;1.05;;
74963;SDS011;63521;51.900;4.748;2023-01-06T00:32:17;1.10;;;1.00;;
74963;SDS011;63521;51.900;4.748;2023-01-06T00:34:43;2.30;;;1.17;;
74963;SDS011;63521;51.900;4.748;2023-01-06T00:37:08;1.92;;;1.42;;
74963;SDS011;63521;51.900;4.748;2023-01-06T00:39:34;1.65;;;0.85;;
74963;SDS011;63521;51.900;4.748;2023-01-06T00:41:59;2.03;;;0.98;;
74963;SDS011;63521;51.900;4.748;2023-01-06T00:44:28;2.13;;;1.00;;
74963;SDS011;63521;51.900;4.748;2023-01-06T00:46:53;1.33;;;0.93;;
74963;SDS011;63521;51.900;4.748;2023-01-06T00:49:19;1.88;;;1.17;;
74963;SDS011;63521;51.900;4.748;2023-01-06T00:51:44;1.23;;;0.98;;
74963;SDS011;63521;51.900;4.748;2023-01-06T00:54:10;3.25;;;1.30;;
74963;SDS011;63521;51.900;4.748;2023-01-06T00:56:37;1.35;;;1.10;;
74963;SDS011;63521;51.900;4.748;2023-01-06T00:59:04;2.72;;;1.00;;
74963;SDS011;63521;51.900;4.748;2023-01-06T01:01:30;2.97;;;1.27;;
74963;SDS011;63521;51.900;4.748;2023-01-06T01:03:56;1.35;;;0.90;;
74963;SDS011;63521;51.900;4.748;2023-01-06T01:06:21;2.85;;;1.20;;
74963;SDS011;63521;51.900;4.748;2023-01-06T01:08:47;1.63;;;1.02;;
74963;SDS011;63521;51.900;4.748;2023-01-06T01:11:12;1.25;;;1.02;;
74963;SDS011;63521;51.900;4.748;2023-01-06T01:14:00;1.13;;;0.90;;
74963;SDS011;63521;51.900;4.748;2023-01-06T01:16:26;1.55;;;1.00;;
74963;SDS011;63521;51.900;4.748;2023-01-06T01:18:51;1.08;;;0.90;;
74963;SDS011;63521;51.900;4.748;2023-01-06T01:21:16;1.50;;;1.00;;
74963;SDS011;63521;51.900;4.748;2023-01-06T01:23:42;1.65;;;0.95;;
74963;SDS011;63521;51.900;4.748;2023-01-06T01:26:07;1.05;;;0.90;;
74963;SDS011;63521;51.900;4.748;2023-01-06T01:28:33;2.40;;;1.05;;
74963;SDS011;63521;51.900;4.748;2023-01-06T01:31:01;3.13;;;1.02;;
74963;SDS011;63521;51.900;4.748;2023-01-06T01:33:28;2.15;;;1.00;;
74963;SDS011;63521;51.900;4.748;2023-01-06T01:35:54;0.85;;;0.85;;
74963;SDS011;63521;51.900;4.748;2023-01-06T01:38:19;2.28;;;1.35;;
74963;SDS011;63521;51.900;4.748;2023-01-06T01:40:48;2.38;;;1.15;;
74963;SDS011;63521;51.900;4.748;2023-01-06T01:43:14;1.33;;;1.10;;
74963;SDS011;63521;51.900;4.748;2023-01-06T01:45:40;1.30;;;0.95;;
74963;SDS011;63521;51.900;4.748;2023-01-06T01:48:25;1.25;;;1.15;;
74963;SDS011;63521;51.900;4.748;2023-01-06T01:50:52;1.63;;;1.00;;
74963;SDS011;63521;51.900;4.748;2023-01-06T01:53:24;1.92;;;0.90;;
74963;SDS011;63521;51.900;4.748;2023-01-06T01:55:52;1.13;;;1.00;;
74963;SDS011;63521;51.900;4.748;2023-01-06T01:58:27;1.52;;;1.10;;
74963;SDS011;63521;51.900;4.748;2023-01-06T02:00:57;2.25;;;1.00;;
74963;SDS011;63521;51.900;4.748;2023-01-06T02:03:23;1.95;;;1.10;;
74963;SDS011;63521;51.900;4.748;2023-01-06T02:05:52;2.13;;;1.23;;
74963;SDS011;63521;51.900;4.748;2023-01-06T02:08:26;1.20;;;1.00;;
74963;SDS011;63521;51.900;4.748;2023-01-06T02:10:57;1.55;;;1.15;;
74963;SDS011;63521;51.900;4.748;2023-01-06T02:13:22;2.63;;;1.10;;
74963;SDS011;63521;51.900;4.748;2023-01-06T02:15:47;2.00;;;1.20;;
74963;SDS011;63521;51.900;4.748;2023-01-06T02:18:17;4.70;;;1.23;;
74963;SDS011;63521;51.900;4.748;2023-01-06T02:23:35;2.33;;;1.33;;
74963;SDS011;63521;51.900;4.748;2023-01-06T02:42:44;1.55;;;0.85;;
74963;SDS011;63521;51.900;4.748;2023-01-06T02:45:19;0.80;;;0.80;;
74963;SDS011;63521;51.900;4.748;2023-01-06T02:50:53;0.88;;;0.80;;
74963;SDS011;63521;51.900;4.748;2023-01-06T02:56:14;1.27;;;0.90;;
74963;SDS011;63521;51.900;4.748;2023-01-06T02:58:47;1.00;;;0.70;;
74963;SDS011;63521;51.900;4.748;2023-01-06T03:01:32;1.02;;;0.77;;
74963;SDS011;63521;51.900;4.748;2023-01-06T03:04:01;2.58;;;0.90;;
74963;SDS011;63521;51.900;4.748;2023-01-06T03:06:30;0.93;;;0.68;;
74963;SDS011;63521;51.900;4.748;2023-01-06T03:08:57;1.33;;;1.00;;
74963;SDS011;63521;51.900;4.748;2023-01-06T03:11:26;0.82;;;0.70;;
74963;SDS011;63521;51.900;4.748;2023-01-06T03:14:08;1.58;;;1.33;;
74963;SDS011;63521;51.900;4.748;2023-01-06T03:16:36;1.02;;;0.95;;
74963;SDS011;63521;51.900;4.748;2023-01-06T03:19:01;0.88;;;0.75;;
74963;SDS011;63521;51.900;4.748;2023-01-06T03:21:29;1.90;;;1.00;;
74963;SDS011;63521;51.900;4.748;2023-01-06T03:23:57;3.25;;;1.05;;
74963;SDS011;63521;51.900;4.748;2023-01-06T03:26:23;1.77;;;1.00;;
74963;SDS011;63521;51.900;4.748;2023-01-06T03:28:49;0.95;;;0.75;;
74963;SDS011;63521;51.900;4.748;2023-01-06T03:34:21;2.67;;;1.00;;
74963;SDS011;63521;51.900;4.748;2023-01-06T03:37:20;2.17;;;1.17;;
74963;SDS011;63521;51.900;4.748;2023-01-06T03:40:02;2.10;;;1.00;;
74963;SDS011;63521;51.900;4.748;2023-01-06T03:48:46;1.05;;;0.77;;
74963;SDS011;63521;51.900;4.748;2023-01-06T03:59:12;1.60;;;1.05;;
74963;SDS011;63521;51.900;4.748;2023-01-06T04:01:40;0.80;;;0.80;;
74963;SDS011;63521;51.900;4.748;2023-01-06T04:04:09;0.77;;;0.70;;
74963;SDS011;63521;51.900;4.748;2023-01-06T04:06:35;0.85;;;0.75;;
74963;SDS011;63521;51.900;4.748;2023-01-06T04:09:00;1.13;;;0.80;;
74963;SDS011;63521;51.900;4.748;2023-01-06T04:11:26;1.25;;;0.90;;
74963;SDS011;63521;51.900;4.748;2023-01-06T04:14:10;1.95;;;0.80;;
74963;SDS011;63521;51.900;4.748;2023-01-06T04:16:35;1.05;;;0.75;;
74963;SDS011;63521;51.900;4.748;2023-01-06T04:19:00;0.95;;;0.82;;
74963;SDS011;63521;51.900;4.748;2023-01-06T04:21:26;1.40;;;1.02;;
74963;SDS011;63521;51.900;4.748;2023-01-06T04:23:51;1.60;;;1.00;;
74963;SDS011;63521;51.900;4.748;2023-01-06T04:26:17;1.48;;;0.80;;
74963;SDS011;63521;51.900;4.748;2023-01-06T04:28:42;0.80;;;0.80;;
74963;SDS011;63521;51.900;4.748;2023-01-06T04:31:08;0.70;;;0.70;;
74963;SDS011;63521;51.900;4.748;2023-01-06T04:33:34;0.77;;;0.70;;
74963;SDS011;63521;51.900;4.748;2023-01-06T04:35:59;1.60;;;0.90;;
74963;SDS011;63521;51.900;4.748;2023-01-06T04:38:24;1.67;;;0.95;;
74963;SDS011;63521;51.900;4.748;2023-01-06T04:40:50;2.95;;;0.90;;
74963;SDS011;63521;51.900;4.748;2023-01-06T04:43:15;1.15;;;0.90;;
74963;SDS011;63521;51.900;4.748;2023-01-06T04:45:42;1.42;;;1.20;;
74963;SDS011;63521;51.900;4.748;2023-01-06T04:48:08;0.80;;;0.80;;
74963;SDS011;63521;51.900;4.748;2023-01-06T04:50:35;1.92;;;0.80;;
74963;SDS011;63521;51.900;4.748;2023-01-06T04:53:00;2.75;;;0.90;;
74963;SDS011;63521;51.900;4.748;2023-01-06T04:55:26;1.55;;;0.85;;
74963;SDS011;63521;51.900;4.748;2023-01-06T04:57:51;1.15;;;0.77;;
74963;SDS011;63521;51.900;4.748;2023-01-06T05:00:17;1.02;;;0.75;;
74963;SDS011;63521;51.900;4.748;2023-01-06T05:02:43;1.17;;;0.90;;
74963;SDS011;63521;51.900;4.748;2023-01-06T05:05:09;1.95;;;0.95;;
74963;SDS011;63521;51.900;4.748;2023-01-06T05:07:35;1.45;;;0.95;;
74963;SDS011;63521;51.900;4.748;2023-01-06T05:10:00;1.63;;;0.63;;
74963;SDS011;63521;51.900;4.748;2023-01-06T05:12:26;1.45;;;0.88;;
74963;SDS011;63521;51.900;4.748;2023-01-06T05:14:51;2.20;;;0.90;;
74963;SDS011;63521;51.900;4.748;2023-01-06T05:17:17;3.58;;;0.95;;
74963;SDS011;63521;51.900;4.748;2023-01-06T05:19:42;1.10;;;0.90;;
74963;SDS011;63521;51.900;4.748;2023-01-06T05:22:08;1.15;;;0.98;;
74963;SDS011;63521;51.900;4.748;2023-01-06T05:24:34;0.90;;;0.80;;
74963;SDS011;63521;51.900;4.748;2023-01-06T05:27:00;1.65;;;0.98;;
74963;SDS011;63521;51.900;4.748;2023-01-06T05:29:25;1.75;;;0.90;;
74963;SDS011;63521;51.900;4.748;2023-01-06T05:31:51;0.82;;;0.77;;
74963;SDS011;63521;51.900;4.748;2023-01-06T05:34:16;1.95;;;0.90;;
74963;SDS011;63521;51.900;4.748;2023-01-06T05:36:42;2.08;;;0.75;;
74963;SDS011;63521;51.900;4.748;2023-01-06T05:39:07;1.73;;;0.70;;
74963;SDS011;63521;51.900;4.748;2023-01-06T05:41:32;1.02;;;0.93;;
74963;SDS011;63521;51.900;4.748;2023-01-06T05:43:58;1.40;;;0.90;;
74963;SDS011;63521;51.900;4.748;2023-01-06T05:46:23;0.77;;;0.77;;
74963;SDS011;63521;51.900;4.748;2023-01-06T05:48:49;0.75;;;0.75;;
74963;SDS011;63521;51.900;4.748;2023-01-06T05:51:14;0.65;;;0.65;;
74963;SDS011;63521;51.900;4.748;2023-01-06T05:53:41;2.15;;;0.77;;
74963;SDS011;63521;51.900;4.748;2023-01-06T05:56:08;1.58;;;0.93;;
74963;SDS011;63521;51.900;4.748;2023-01-06T05:58:35;0.80;;;0.80;;
74963;SDS011;63521;51.900;4.748;2023-01-06T06:01:04;2.05;;;0.90;;
74963;SDS011;63521;51.900;4.748;2023-01-06T06:03:30;1.08;;;0.80;;
74963;SDS011;63521;51.900;4.748;2023-01-06T06:06:02;2.28;;;0.90;;
74963;SDS011;63521;51.900;4.748;2023-01-06T06:08:29;0.90;;;0.90;;
74963;SDS011;63521;51.900;4.748;2023-01-06T06:10:54;1.60;;;1.00;;
74963;SDS011;63521;51.900;4.748;2023-01-06T06:13:20;1.00;;;0.90;;
74963;SDS011;63521;51.900;4.748;2023-01-06T06:15:45;0.90;;;0.90;;
74963;SDS011;63521;51.900;4.748;2023-01-06T06:18:10;0.70;;;0.70;;
74963;SDS011;63521;51.900;4.748;2023-01-06T06:20:36;1.10;;;1.00;;
74963;SDS011;63521;51.900;4.748;2023-01-06T06:23:01;2.25;;;1.00;;
74963;SDS011;63521;51.900;4.748;2023-01-06T06:25:26;0.80;;;0.80;;
74963;SDS011;63521;51.900;4.748;2023-01-06T06:27:56;0.85;;;0.77;;
74963;SDS011;63521;51.900;4.748;2023-01-06T06:30:21;0.80;;;0.70;;
74963;SDS011;63521;51.900;4.748;2023-01-06T06:32:47;2.00;;;0.90;;
74963;SDS011;63521;51.900;4.748;2023-01-06T06:35:12;1.17;;;0.85;;
74963;SDS011;63521;51.900;4.748;2023-01-06T06:37:37;1.02;;;0.75;;
74963;SDS011;63521;51.900;4.748;2023-01-06T06:40:03;2.10;;;0.90;;
74963;SDS011;63521;51.900;4.748;2023-01-06T06:42:29;0.98;;;0.88;;
74963;SDS011;63521;51.900;4.748;2023-01-06T06:44:54;1.20;;;1.10;;
74963;SDS011;63521;51.900;4.748;2023-01-06T06:47:20;1.27;;;1.10;;
74963;SDS011;63521;51.900;4.748;2023-01-06T06:49:45;1.55;;;0.98;;
74963;SDS011;63521;51.900;4.748;2023-01-06T06:52:10;1.10;;;0.95;;
74963;SDS011;63521;51.900;4.748;2023-01-06T06:54:36;1.02;;;0.93;;
74963;SDS011;63521;51.900;4.748;2023-01-06T06:57:01;1.02;;;0.98;;
74963;SDS011;63521;51.900;4.748;2023-01-06T06:59:27;1.15;;;1.05;;
74963;SDS011;63521;51.900;4.748;2023-01-06T07:01:52;1.10;;;1.00;;
74963;SDS011;63521;51.900;4.748;2023-01-06T07:04:18;0.90;;;0.90;;
74963;SDS011;63521;51.900;4.748;2023-01-06T07:06:43;1.45;;;1.00;;
74963;SDS011;63521;51.900;4.748;2023-01-06T07:09:09;0.85;;;0.73;;
74963;SDS011;63521;51.900;4.748;2023-01-06T07:11:34;1.77;;;0.90;;
74963;SDS011;63521;51.900;4.748;2023-01-06T07:13:59;0.75;;;0.70;;
74963;SDS011;63521;51.900;4.748;2023-01-06T07:16:25;4.13;;;1.33;;
74963;SDS011;63521;51.900;4.748;2023-01-06T07:18:51;2.65;;;1.10;;
74963;SDS011;63521;51.900;4.748;2023-01-06T07:21:16;2.03;;;1.10;;
74963;SDS011;63521;51.900;4.748;2023-01-06T07:23:42;0.80;;;0.80;;
74963;SDS011;63521;51.900;4.748;2023-01-06T07:26:07;1.73;;;1.00;;
74963;SDS011;63521;51.900;4.748;2023-01-06T07:28:33;2.22;;;1.10;;
74963;SDS011;63521;51.900;4.748;2023-01-06T07:30:59;0.80;;;0.80;;
74963;SDS011;63521;51.900;4.748;2023-01-06T07:33:24;0.95;;;0.88;;
74963;SDS011;63521;51.900;4.748;2023-01-06T07:35:53;1.33;;;0.90;;
74963;SDS011;63521;51.900;4.748;2023-01-06T07:38:19;1.95;;;1.00;;
74963;SDS011;63521;51.900;4.748;2023-01-06T07:40:44;0.90;;;0.90;;
74963;SDS011;63521;51.900;4.748;2023-01-06T07:43:10;0.82;;;0.80;;
74963;SDS011;63521;51.900;4.748;2023-01-06T07:45:36;0.93;;;0.90;;
74963;SDS011;63521;51.900;4.748;2023-01-06T07:48:02;0.88;;;0.70;;
74963;SDS011;63521;51.900;4.748;2023-01-06T07:50:28;0.93;;;0.90;;
74963;SDS011;63521;51.900;4.748;2023-01-06T07:52:56;0.85;;;0.70;;
74963;SDS011;63521;51.900;4.748;2023-01-06T07:55:22;0.82;;;0.82;;
74963;SDS011;63521;51.900;4.748;2023-01-06T07:57:47;0.80;;;0.80;;
74963;SDS011;63521;51.900;4.748;2023-01-06T08:00:13;0.90;;;0.90;;
74963;SDS011;63521;51.900;4.748;2023-01-06T08:02:39;1.23;;;0.80;;
74963;SDS011;63521;51.900;4.748;2023-01-06T08:05:04;0.60;;;0.60;;
74963;SDS011;63521;51.900;4.748;2023-01-06T08:07:30;0.60;;;0.60;;
74963;SDS011;63521;51.900;4.748;2023-01-06T08:09:55;1.90;;;0.80;;
74963;SDS011;63521;51.900;4.748;2023-01-06T08:12:21;0.60;;;0.60;;
74963;SDS011;63521;51.900;4.748;2023-01-06T08:14:46;1.77;;;0.70;;
74963;SDS011;63521;51.900;4.748;2023-01-06T08:17:12;1.63;;;1.27;;
74963;SDS011;63521;51.900;4.748;2023-01-06T08:19:38;1.42;;;0.82;;
74963;SDS011;63521;51.900;4.748;2023-01-06T08:22:03;0.73;;;0.60;;
74963;SDS011;63521;51.900;4.748;2023-01-06T08:24:29;0.73;;;0.68;;
74963;SDS011;63521;51.900;4.748;2023-01-06T08:26:55;1.23;;;0.80;;
74963;SDS011;63521;51.900;4.748;2023-01-06T08:29:21;1.17;;;0.85;;
74963;SDS011;63521;51.900;4.748;2023-01-06T08:31:46;0.93;;;0.70;;
74963;SDS011;63521;51.900;4.748;2023-01-06T08:34:12;1.10;;;0.57;;
74963;SDS011;63521;51.900;4.748;2023-01-06T08:36:38;1.25;;;0.80;;
74963;SDS011;63521;51.900;4.748;2023-01-06T08:39:05;1.17;;;0.68;;
74963;SDS011;63521;51.900;4.748;2023-01-06T08:41:31;1.85;;;0.65;;
74963;SDS011;63521;51.900;4.748;2023-01-06T08:43:57;0.70;;;0.70;;
74963;SDS011;63521;51.900;4.748;2023-01-06T08:46:22;1.13;;;0.57;;
74963;SDS011;63521;51.900;4.748;2023-01-06T08:48:48;1.60;;;0.88;;
74963;SDS011;63521;51.900;4.748;2023-01-06T08:51:14;1.88;;;0.60;;
74963;SDS011;63521;51.900;4.748;2023-01-06T08:53:42;1.20;;;0.70;;
74963;SDS011;63521;51.900;4.748;2023-01-06T08:56:25;1.25;;;0.68;;
74963;SDS011;63521;51.900;4.748;2023-01-06T08:58:56;0.93;;;0.77;;
74963;SDS011;63521;51.900;4.748;2023-01-06T09:01:29;0.93;;;0.90;;
74963;SDS011;63521;51.900;4.748;2023-01-06T09:03:57;0.52;;;0.50;;
74963;SDS011;63521;51.900;4.748;2023-01-06T09:06:24;1.00;;;0.70;;
74963;SDS011;63521;51.900;4.748;2023-01-06T09:08:50;1.80;;;0.90;;
74963;SDS011;63521;51.900;4.748;2023-01-06T09:11:16;0.95;;;0.80;;
74963;SDS011;63521;51.900;4.748;2023-01-06T09:13:41;1.90;;;0.80;;
74963;SDS011;63521;51.900;4.748;2023-01-06T09:16:08;1.90;;;0.70;;
74963;SDS011;63521;51.900;4.748;2023-01-06T09:18:34;1.98;;;0.80;;
74963;SDS011;63521;51.900;4.748;2023-01-06T09:21:00;0.93;;;0.65;;
74963;SDS011;63521;51.900;4.748;2023-01-06T09:23:26;1.50;;;0.70;;
74963;SDS011;63521;51.900;4.748;2023-01-06T09:25:51;1.30;;;0.50;;
74963;SDS011;63521;51.900;4.748;2023-01-06T09:28:16;2.08;;;0.77;;
74963;SDS011;63521;51.900;4.748;2023-01-06T09:30:42;0.90;;;0.50;;
74963;SDS011;63521;51.900;4.748;2023-01-06T09:33:10;1.23;;;0.50;;
74963;SDS011;63521;51.900;4.748;2023-01-06T09:35:35;0.55;;;0.52;;
74963;SDS011;63521;51.900;4.748;2023-01-06T09:38:01;0.50;;;0.50;;
74963;SDS011;63521;51.900;4.748;2023-01-06T09:40:28;2.15;;;0.85;;
74963;SDS011;63521;51.900;4.748;2023-01-06T09:43:01;0.63;;;0.50;;
74963;SDS011;63521;51.900;4.748;2023-01-06T09:45:37;1.75;;;0.65;;
74963;SDS011;63521;51.900;4.748;2023-01-06T09:48:05;0.50;;;0.38;;
74963;SDS011;63521;51.900;4.748;2023-01-06T09:50:49;0.68;;;0.68;;
74963;SDS011;63521;51.900;4.748;2023-01-06T09:53:21;0.82;;;0.60;;
74963;SDS011;63521;51.900;4.748;2023-01-06T09:55:51;1.05;;;0.68;;
74963;SDS011;63521;51.900;4.748;2023-01-06T09:58:23;0.50;;;0.40;;
74963;SDS011;63521;51.900;4.748;2023-01-06T10:00:52;0.95;;;0.63;;
74963;SDS011;63521;51.900;4.748;2023-01-06T10:03:22;0.60;;;0.60;;
74963;SDS011;63521;51.900;4.748;2023-01-06T10:09:01;2.38;;;0.80;;
74963;SDS011;63521;51.900;4.748;2023-01-06T10:14:16;1.13;;;0.65;;
74963;SDS011;63521;51.900;4.748;2023-01-06T10:22:36;0.52;;;0.50;;
74963;SDS011;63521;51.900;4.748;2023-01-06T10:27:58;0.50;;;0.50;;
74963;SDS011;63521;51.900;4.748;2023-01-06T10:30:31;0.30;;;0.30;;
74963;SDS011;63521;51.900;4.748;2023-01-06T10:33:00;2.72;;;0.77;;
74963;SDS011;63521;51.900;4.748;2023-01-06T10:35:25;1.45;;;0.60;;
74963;SDS011;63521;51.900;4.748;2023-01-06T10:37:51;0.57;;;0.57;;
74963;SDS011;63521;51.900;4.748;2023-01-06T10:40:25;0.77;;;0.50;;
74963;SDS011;63521;51.900;4.748;2023-01-06T10:43:03;1.02;;;0.60;;
74963;SDS011;63521;51.900;4.748;2023-01-06T10:45:41;0.40;;;0.40;;
74963;SDS011;63521;51.900;4.748;2023-01-06T10:48:13;3.58;;;0.75;;
74963;SDS011;63521;51.900;4.748;2023-01-06T10:50:40;1.35;;;0.55;;
74963;SDS011;63521;51.900;4.748;2023-01-06T10:53:05;1.35;;;0.50;;
74963;SDS011;63521;51.900;4.748;2023-01-06T10:55:33;2.45;;;0.70;;
74963;SDS011;63521;51.900;4.748;2023-01-06T10:58:09;1.15;;;0.63;;
74963;SDS011;63521;51.900;4.748;2023-01-06T11:00:51;1.77;;;0.60;;
74963;SDS011;63521;51.900;4.748;2023-01-06T11:03:21;0.50;;;0.40;;
74963;SDS011;63521;51.900;4.748;2023-01-06T11:05:46;0.82;;;0.70;;
74963;SDS011;63521;51.900;4.748;2023-01-06T11:08:26;0.52;;;0.50;;
74963;SDS011;63521;51.900;4.748;2023-01-06T11:10:54;1.98;;;0.50;;
74963;SDS011;63521;51.900;4.748;2023-01-06T11:13:28;2.65;;;0.73;;
74963;SDS011;63521;51.900;4.748;2023-01-06T11:15:54;2.60;;;0.60;;
74963;SDS011;63521;51.900;4.748;2023-01-06T11:18:34;0.80;;;0.70;;
74963;SDS011;63521;51.900;4.748;2023-01-06T11:23:43;1.25;;;0.60;;
74963;SDS011;63521;51.900;4.748;2023-01-06T11:28:36;0.57;;;0.50;;
74963;SDS011;63521;51.900;4.748;2023-01-06T11:31:08;2.60;;;0.43;;
74963;SDS011;63521;51.900;4.748;2023-01-06T11:33:45;0.57;;;0.50;;
74963;SDS011;63521;51.900;4.748;2023-01-06T11:36:12;1.40;;;0.30;;
74963;SDS011;63521;51.900;4.748;2023-01-06T11:38:53;1.90;;;0.50;;
74963;SDS011;63521;51.900;4.748;2023-01-06T11:41:22;2.67;;;0.65;;
74963;SDS011;63521;51.900;4.748;2023-01-06T11:43:50;0.30;;;0.30;;
74963;SDS011;63521;51.900;4.748;2023-01-06T11:46:16;0.85;;;0.43;;
74963;SDS011;63521;51.900;4.748;2023-01-06T11:48:56;1.20;;;0.50;;
74963;SDS011;63521;51.900;4.748;2023-01-06T11:54:15;3.10;;;0.60;;
74963;SDS011;63521;51.900;4.748;2023-01-06T11:57:00;0.55;;;0.30;;
74963;SDS011;63521;51.900;4.748;2023-01-06T11:59:46;1.23;;;0.52;;
74963;SDS011;63521;51.900;4.748;2023-01-06T12:02:22;1.00;;;0.40;;
74963;SDS011;63521;51.900;4.748;2023-01-06T12:04:53;1.02;;;0.70;;
74963;SDS011;63521;51.900;4.748;2023-01-06T12:09:45;0.40;;;0.40;;
74963;SDS011;63521;51.900;4.748;2023-01-06T12:12:16;0.45;;;0.45;;
74963;SDS011;63521;51.900;4.748;2023-01-06T12:14:43;1.02;;;0.50;;
74963;SDS011;63521;51.900;4.748;2023-01-06T12:17:15;1.70;;;0.47;;
74963;SDS011;63521;51.900;4.748;2023-01-06T12:19:58;0.65;;;0.28;;
74963;SDS011;63521;51.900;4.748;2023-01-06T12:22:30;0.38;;;0.35;;
74963;SDS011;63521;51.900;4.748;2023-01-06T12:24:59;0.98;;;0.40;;
74963;SDS011;63521;51.900;4.748;2023-01-06T12:27:28;1.33;;;0.50;;
74963;SDS011;63521;51.900;4.748;2023-01-06T12:29:57;1.33;;;0.50;;
74963;SDS011;63521;51.900;4.748;2023-01-06T12:32:25;2.10;;;0.30;;
74963;SDS011;63521;51.900;4.748;2023-01-06T12:34:53;1.77;;;0.65;;
74963;SDS011;63521;51.900;4.748;2023-01-06T12:37:34;1.27;;;0.95;;
74963;SDS011;63521;51.900;4.748;2023-01-06T12:48:25;1.88;;;0.40;;
74963;SDS011;63521;51.900;4.748;2023-01-06T12:51:15;0.73;;;0.55;;
74963;SDS011;63521;51.900;4.748;2023-01-06T12:53:48;2.13;;;0.90;;
74963;SDS011;63521;51.900;4.748;2023-01-06T13:02:29;1.15;;;0.60;;
74963;SDS011;63521;51.900;4.748;2023-01-06T13:08:20;0.45;;;0.40;;
74963;SDS011;63521;51.900;4.748;2023-01-06T13:14:03;0.68;;;0.38;;
74963;SDS011;63521;51.900;4.748;2023-01-06T13:27:03;0.32;;;0.30;;
74963;SDS011;63521;51.900;4.748;2023-01-06T13:29:50;1.25;;;0.38;;
74963;SDS011;63521;51.900;4.748;2023-01-06T13:35:27;0.95;;;0.43;;
74963;SDS011;63521;51.900;4.748;2023-01-06T13:40:59;0.77;;;0.45;;
74963;SDS011;63521;51.900;4.748;2023-01-06T13:43:29;1.00;;;0.60;;
74963;SDS011;63521;51.900;4.748;2023-01-06T13:45:59;1.65;;;0.63;;
74963;SDS011;63521;51.900;4.748;2023-01-06T13:48:28;0.35;;;0.30;;
74963;SDS011;63521;51.900;4.748;2023-01-06T13:50:57;1.35;;;0.43;;
74963;SDS011;63521;51.900;4.748;2023-01-06T13:53:24;0.77;;;0.55;;
74963;SDS011;63521;51.900;4.748;2023-01-06T13:58:44;0.47;;;0.47;;
74963;SDS011;63521;51.900;4.748;2023-01-06T14:01:11;0.35;;;0.35;;
74963;SDS011;63521;51.900;4.748;2023-01-06T14:03:37;1.65;;;0.82;;
74963;SDS011;63521;51.900;4.748;2023-01-06T14:06:04;0.47;;;0.40;;
74963;SDS011;63521;51.900;4.748;2023-01-06T14:08:35;0.68;;;0.52;;
74963;SDS011;63521;51.900;4.748;2023-01-06T14:11:15;1.00;;;0.25;;
74963;SDS011;63521;51.900;4.748;2023-01-06T14:13:48;0.30;;;0.30;;
74963;SDS011;63521;51.900;4.748;2023-01-06T14:16:21;0.75;;;0.52;;
74963;SDS011;63521;51.900;4.748;2023-01-06T14:19:04;0.35;;;0.28;;
74963;SDS011;63521;51.900;4.748;2023-01-06T14:21:31;0.93;;;0.45;;
74963;SDS011;63521;51.900;4.748;2023-01-06T14:23:58;0.50;;;0.32;;
74963;SDS011;63521;51.900;4.748;2023-01-06T14:31:53;0.40;;;0.40;;
74963;SDS011;63521;51.900;4.748;2023-01-06T14:34:18;2.85;;;0.50;;
74963;SDS011;63521;51.900;4.748;2023-01-06T14:36:46;1.33;;;0.32;;
74963;SDS011;63521;51.900;4.748;2023-01-06T14:39:17;0.57;;;0.50;;
74963;SDS011;63521;51.900;4.748;2023-01-06T14:41:51;0.98;;;0.40;;
74963;SDS011;63521;51.900;4.748;2023-01-06T14:44:18;4.03;;;0.77;;
74963;SDS011;63521;51.900;4.748;2023-01-06T14:46:56;1.15;;;0.55;;
74963;SDS011;63521;51.900;4.748;2023-01-06T14:52:15;1.75;;;0.47;;
74963;SDS011;63521;51.900;4.748;2023-01-06T14:54:42;1.90;;;0.70;;
74963;SDS011;63521;51.900;4.748;2023-01-06T14:57:25;2.38;;;0.50;;
74963;SDS011;63521;51.900;4.748;2023-01-06T15:02:33;1.50;;;0.50;;
74963;SDS011;63521;51.900;4.748;2023-01-06T15:04:58;1.58;;;0.40;;
74963;SDS011;63521;51.900;4.748;2023-01-06T15:07:24;1.63;;;0.40;;
74963;SDS011;63521;51.900;4.748;2023-01-06T15:09:49;0.98;;;0.40;;
74963;SDS011;63521;51.900;4.748;2023-01-06T15:12:26;0.73;;;0.40;;
74963;SDS011;63521;51.900;4.748;2023-01-06T15:14:52;1.58;;;0.40;;
74963;SDS011;63521;51.900;4.748;2023-01-06T15:17:18;1.02;;;0.40;;
74963;SDS011;63521;51.900;4.748;2023-01-06T15:19:44;2.00;;;0.70;;
74963;SDS011;63521;51.900;4.748;2023-01-06T15:22:12;0.65;;;0.40;;
74963;SDS011;63521;51.900;4.748;2023-01-06T15:24:44;1.33;;;0.52;;
74963;SDS011;63521;51.900;4.748;2023-01-06T15:27:11;1.73;;;0.57;;
74963;SDS011;63521;51.900;4.748;2023-01-06T15:29:38;0.70;;;0.70;;
74963;SDS011;63521;51.900;4.748;2023-01-06T15:32:13;0.65;;;0.38;;
74963;SDS011;63521;51.900;4.748;2023-01-06T15:34:39;1.10;;;0.57;;
74963;SDS011;63521;51.900;4.748;2023-01-06T15:37:07;0.55;;;0.43;;
74963;SDS011;63521;51.900;4.748;2023-01-06T15:39:37;2.47;;;0.50;;
74963;SDS011;63521;51.900;4.748;2023-01-06T15:42:04;2.28;;;0.77;;
74963;SDS011;63521;51.900;4.748;2023-01-06T15:44:31;0.73;;;0.60;;
74963;SDS011;63521;51.900;4.748;2023-01-06T15:47:03;5.55;;;0.80;;
74963;SDS011;63521;51.900;4.748;2023-01-06T15:52:20;1.48;;;0.60;;
74963;SDS011;63521;51.900;4.748;2023-01-06T15:54:49;1.05;;;0.43;;
74963;SDS011;63521;51.900;4.748;2023-01-06T15:57:15;0.70;;;0.70;;
74963;SDS011;63521;51.900;4.748;2023-01-06T15:59:41;1.25;;;0.80;;
74963;SDS011;63521;51.900;4.748;2023-01-06T16:02:17;0.75;;;0.43;;
74963;SDS011;63521;51.900;4.748;2023-01-06T16:04:43;3.10;;;0.75;;
74963;SDS011;63521;51.900;4.748;2023-01-06T16:07:19;1.38;;;0.70;;
74963;SDS011;63521;51.900;4.748;2023-01-06T16:09:45;1.35;;;0.50;;
74963;SDS011;63521;51.900;4.748;2023-01-06T16:12:17;1.17;;;0.85;;
74963;SDS011;63521;51.900;4.748;2023-01-06T16:14:43;2.03;;;0.70;;
74963;SDS011;63521;51.900;4.748;2023-01-06T16:19:48;1.20;;;0.60;;
74963;SDS011;63521;51.900;4.748;2023-01-06T16:25:04;1.55;;;0.77;;
74963;SDS011;63521;51.900;4.748;2023-01-06T16:27:44;1.52;;;0.82;;
74963;SDS011;63521;51.900;4.748;2023-01-06T16:32:40;1.33;;;0.55;;
74963;SDS011;63521;51.900;4.748;2023-01-06T16:35:16;0.90;;;0.60;;
74963;SDS011;63521;51.900;4.748;2023-01-06T16:37:43;0.40;;;0.30;;
74963;SDS011;63521;51.900;4.748;2023-01-06T16:40:12;0.93;;;0.50;;
74963;SDS011;63521;51.900;4.748;2023-01-06T16:42:39;0.65;;;0.65;;
74963;SDS011;63521;51.900;4.748;2023-01-06T16:45:09;1.63;;;0.57;;
74963;SDS011;63521;51.900;4.748;2023-01-06T16:47:38;1.45;;;0.43;;
74963;SDS011;63521;51.900;4.748;2023-01-06T16:52:41;2.17;;;0.90;;
74963;SDS011;63521;51.900;4.748;2023-01-06T16:55:10;0.82;;;0.52;;
74963;SDS011;63521;51.900;4.748;2023-01-06T16:57:37;1.05;;;0.60;;
74963;SDS011;63521;51.900;4.748;2023-01-06T17:00:02;0.60;;;0.60;;
74963;SDS011;63521;51.900;4.748;2023-01-06T17:02:30;0.95;;;0.73;;
74963;SDS011;63521;51.900;4.748;2023-01-06T17:04:56;0.85;;;0.68;;
74963;SDS011;63521;51.900;4.748;2023-01-06T17:07:21;0.93;;;0.45;;